Time;durP1;ratioP1;P1;durP2;ratioP2;P2;SDS_P1;SDS_P2;PMS_P1;PMS_P2;Temp;Humidity;BMP_temperature;BMP_pressure;BME280_temperature;BME280_humidity;BME280_pressure;Samples;Min_cycle;Max_cycle;Signal;HPM_P1;HPM_P2
2023/08/16 00:00:06;;;;;;;3.75;3.28;;;14.70;99.90;;;;;;4797236;29;20052;-85
2023/08/16 00:02:32;;;;;;;5.90;3.78;;;14.70;99.90;;;;;;4828240;29;20041;-85
2023/08/16 00:04:58;;;;;;;5.88;4.13;;;14.80;99.90;;;;;;4796400;29;20049;-85
2023/08/16 00:07:24;;;;;;;5.65;4.82;;;14.80;99.90;;;;;;4820155;29;20140;-85
2023/08/16 00:09:52;;;;;;;7.25;4.68;;;14.90;99.90;;;;;;4838649;29;20494;-85
2023/08/16 00:12:18;;;;;;;7.45;4.50;;;14.90;99.90;;;;;;4810687;29;20050;-85
2023/08/16 00:14:44;;;;;;;5.80;4.22;;;14.90;99.90;;;;;;4797476;29;20056;-85
2023/08/16 00:17:09;;;;;;;9.32;4.90;;;14.90;99.90;;;;;;4827442;29;20481;-85
2023/08/16 00:19:37;;;;;;;5.82;4.45;;;14.90;99.90;;;;;;4831809;29;20041;-85
2023/08/16 00:22:02;;;;;;;;;;;14.90;99.90;;;;;;4813074;29;20045;-85
2023/08/16 00:24:28;;;;;;;4.75;3.88;;;15.00;99.90;;;;;;4841268;29;20321;-86
2023/08/16 00:26:54;;;;;;;5.03;4.05;;;14.90;99.90;;;;;;4813631;29;20406;-85
2023/08/16 00:29:20;;;;;;;4.80;3.30;;;14.90;99.90;;;;;;4827481;29;20049;-85
2023/08/16 00:31:45;;;;;;;6.80;3.70;;;14.80;99.90;;;;;;4842651;29;20050;-85
2023/08/16 00:34:11;;;;;;;4.05;3.63;;;14.90;99.90;;;;;;4843160;29;20046;-85
2023/08/16 00:36:37;;;;;;;5.72;4.10;;;14.80;99.90;;;;;;4827067;29;20068;-84
2023/08/16 00:39:03;;;;;;;4.78;3.78;;;14.80;99.90;;;;;;4811652;29;20490;-85
2023/08/16 00:41:29;;;;;;;6.93;3.90;;;14.70;99.90;;;;;;4842033;29;20097;-85
2023/08/16 00:43:54;;;;;;;3.70;3.40;;;14.70;99.90;;;;;;4835488;29;20490;-85
2023/08/16 00:46:21;;;;;;;4.78;3.42;;;14.70;99.90;;;;;;4827118;29;20049;-85
2023/08/16 00:48:47;;;;;;;6.43;3.03;;;14.70;99.90;;;;;;4844056;29;20378;-84
2023/08/16 00:51:13;;;;;;;7.32;3.10;;;14.70;99.90;;;;;;4842307;29;20502;-84
2023/08/16 00:53:42;;;;;;;4.00;3.20;;;14.70;99.90;;;;;;4834472;29;20076;-84
2023/08/16 00:56:07;;;;;;;5.25;2.67;;;14.60;99.90;;;;;;4828138;29;20037;-85
2023/08/16 00:58:34;;;;;;;3.30;2.75;;;14.60;99.90;;;;;;4797068;29;20072;-85
2023/08/16 01:00:59;;;;;;;2.78;2.40;;;14.70;99.90;;;;;;4845589;29;20049;-85
2023/08/16 01:03:25;;;;;;;2.92;2.10;;;14.60;99.90;;;;;;4820742;29;20137;-85
2023/08/16 01:05:51;;;;;;;2.75;2.20;;;14.60;99.90;;;;;;4800844;29;20413;-85
2023/08/16 01:08:18;;;;;;;2.80;2.45;;;14.50;99.90;;;;;;4824389;29;20099;-85
2023/08/16 01:10:52;;;;;;;3.22;2.50;;;14.50;99.90;;;;;;4835047;29;20053;-84
2023/08/16 01:13:46;;;;;;;4.25;2.97;;;14.40;99.90;;;;;;4834645;29;20590;-85
2023/08/16 01:16:11;;;;;;;2.22;1.80;;;14.40;99.90;;;;;;4842337;29;20045;-85
2023/08/16 01:18:40;;;;;;;8.55;2.25;;;14.40;99.90;;;;;;4840275;29;20045;-85
2023/08/16 01:21:08;;;;;;;9.18;2.08;;;14.30;99.90;;;;;;4830185;29;20049;-85
2023/08/16 01:23:34;;;;;;;2.13;1.50;;;14.30;99.90;;;;;;4825162;29;20048;-85
2023/08/16 01:26:12;;;;;;;2.50;2.00;;;14.20;99.90;;;;;;4838229;29;20045;-85
2023/08/16 01:28:39;;;;;;;4.20;2.05;;;14.20;99.90;;;;;;4846287;29;20041;-85
2023/08/16 01:31:05;;;;;;;2.15;1.85;;;14.10;99.90;;;;;;4805214;29;20052;-86
2023/08/16 01:33:31;;;;;;;2.72;2.30;;;14.10;99.90;;;;;;4831154;29;20053;-85
2023/08/16 01:35:57;;;;;;;3.67;1.83;;;14.10;99.90;;;;;;4826037;29;20137;-85
2023/08/16 01:38:24;;;;;;;3.45;1.80;;;14.10;99.90;;;;;;4827241;29;20048;-87
2023/08/16 01:40:50;;;;;;;2.85;2.38;;;14.10;99.90;;;;;;4844199;29;20161;-86
2023/08/16 01:43:18;;;;;;;6.60;3.60;;;14.10;99.90;;;;;;4824423;29;20538;-86
2023/08/16 01:45:45;;;;;;;4.53;3.22;;;14.10;99.90;;;;;;4828475;29;20041;-86
2023/08/16 01:48:12;;;;;;;2.55;2.33;;;14.20;99.90;;;;;;4813563;29;20144;-86
2023/08/16 01:50:38;;;;;;;3.13;2.08;;;14.10;99.90;;;;;;4843037;29;20085;-86
2023/08/16 01:53:04;;;;;;;4.03;2.40;;;14.10;99.90;;;;;;4847717;29;20508;-86
2023/08/16 01:55:30;;;;;;;3.83;2.47;;;14.00;99.90;;;;;;4816437;29;20045;-85
2023/08/16 01:57:56;;;;;;;4.43;2.70;;;14.10;99.90;;;;;;4795454;29;20049;-85
2023/08/16 02:00:21;;;;;;;3.08;2.55;;;14.00;99.90;;;;;;4823930;29;20037;-86
2023/08/16 02:02:47;;;;;;;2.58;1.50;;;14.00;99.90;;;;;;4795611;29;20049;-85
2023/08/16 02:05:13;;;;;;;2.15;1.00;;;14.00;99.90;;;;;;4844043;29;20608;-85
2023/08/16 02:07:38;;;;;;;1.27;1.00;;;14.00;99.90;;;;;;4811082;29;20046;-84
2023/08/16 02:10:05;;;;;;;2.17;1.08;;;13.90;99.90;;;;;;4813178;29;20053;-85
2023/08/16 02:12:30;;;;;;;4.28;1.80;;;13.80;99.90;;;;;;4827044;29;20049;-85
2023/08/16 02:14:56;;;;;;;4.82;1.90;;;13.80;99.90;;;;;;4803081;29;20045;-85
2023/08/16 02:17:22;;;;;;;1.58;1.33;;;13.80;99.90;;;;;;4811433;29;20433;-86
2023/08/16 02:19:48;;;;;;;1.63;1.27;;;13.80;99.90;;;;;;4813439;29;20045;-86
2023/08/16 02:22:14;;;;;;;1.70;1.08;;;13.80;99.90;;;;;;4847821;29;20128;-85
2023/08/16 02:24:39;;;;;;;1.63;0.82;;;13.80;99.90;;;;;;4827427;29;20136;-85
2023/08/16 02:27:05;;;;;;;0.57;0.57;;;13.70;99.90;;;;;;4826948;29;20045;-85
2023/08/16 02:29:31;;;;;;;1.00;0.90;;;13.60;99.90;;;;;;4821596;29;20413;-85
2023/08/16 02:31:56;;;;;;;3.78;1.58;;;13.60;99.90;;;;;;4851015;29;20049;-85
2023/08/16 02:34:22;;;;;;;4.05;2.72;;;13.50;99.90;;;;;;4828780;29;20049;-86
2023/08/16 02:36:48;;;;;;;7.97;3.60;;;13.50;99.90;;;;;;4816957;29;20056;-86
2023/08/16 02:39:14;;;;;;;5.93;3.65;;;13.60;99.90;;;;;;4802417;29;20082;-86
2023/08/16 02:41:39;;;;;;;6.55;4.65;;;13.60;99.90;;;;;;4803470;29;20064;-86
2023/08/16 02:44:05;;;;;;;7.20;4.40;;;13.80;99.90;;;;;;4805513;29;20049;-86
2023/08/16 02:46:31;;;;;;;7.90;5.38;;;13.90;99.90;;;;;;4826999;29;20062;-86
2023/08/16 02:48:56;;;;;;;7.68;5.28;;;13.90;99.90;;;;;;4796814;29;20090;-85
2023/08/16 02:51:22;;;;;;;8.73;5.70;;;14.10;99.90;;;;;;4820444;29;20125;-87
2023/08/16 02:53:48;;;;;;;7.95;4.95;;;14.10;99.90;;;;;;4816701;29;20046;-86
2023/08/16 02:56:13;;;;;;;8.80;5.15;;;14.20;99.90;;;;;;4828601;29;20052;-86
2023/08/16 02:58:39;;;;;;;5.78;4.82;;;14.20;99.90;;;;;;4818189;29;20046;-86
2023/08/16 03:01:05;;;;;;;6.40;4.57;;;14.30;99.90;;;;;;4816366;29;20044;-86
2023/08/16 03:03:31;;;;;;;7.25;4.18;;;14.30;99.90;;;;;;4827038;29;20045;-86
2023/08/16 03:05:57;;;;;;;7.75;5.00;;;14.30;99.90;;;;;;4841754;29;20660;-86
2023/08/16 03:08:23;;;;;;;4.47;3.10;;;14.30;99.90;;;;;;4846925;29;20048;-85
2023/08/16 03:10:49;;;;;;;8.35;2.63;;;14.30;99.90;;;;;;4830463;29;20052;-84
2023/08/16 03:13:15;;;;;;;3.33;1.80;;;14.20;99.90;;;;;;4843628;29;20049;-85
2023/08/16 03:15:41;;;;;;;3.42;1.83;;;14.10;99.90;;;;;;4813667;29;20718;-84
2023/08/16 03:18:06;;;;;;;4.60;1.95;;;14.00;99.90;;;;;;4798745;29;20038;-85
2023/08/16 03:20:32;;;;;;;3.38;1.98;;;13.90;99.90;;;;;;4828876;29;20092;-84
2023/08/16 03:22:58;;;;;;;4.03;2.53;;;13.90;99.90;;;;;;4841853;29;20075;-85
2023/08/16 03:25:24;;;;;;;3.15;2.15;;;13.80;99.90;;;;;;4812943;29;20493;-85
2023/08/16 03:27:49;;;;;;;3.10;2.30;;;13.80;99.90;;;;;;4814421;29;20045;-85
2023/08/16 03:30:15;;;;;;;4.53;2.50;;;13.70;99.90;;;;;;4835375;29;20041;-84
2023/08/16 03:32:41;;;;;;;6.70;2.90;;;13.70;99.90;;;;;;4813000;29;20124;-85
2023/08/16 03:35:07;;;;;;;5.30;3.00;;;13.70;99.90;;;;;;4828829;29;20046;-85
2023/08/16 03:37:33;;;;;;;4.28;2.78;;;13.70;99.90;;;;;;4798173;29;20110;-85
2023/08/16 03:39:59;;;;;;;3.97;3.15;;;13.70;99.90;;;;;;4824386;29;20085;-85
2023/08/16 03:42:25;;;;;;;3.28;2.47;;;13.70;99.90;;;;;;4826502;29;20045;-85
2023/08/16 03:44:50;;;;;;;5.88;2.72;;;13.70;99.90;;;;;;4829438;29;20056;-85
2023/08/16 03:47:16;;;;;;;4.90;2.88;;;13.70;99.90;;;;;;4815431;29;20086;-85
2023/08/16 03:49:44;;;;;;;4.60;2.72;;;13.60;99.90;;;;;;4795817;29;20088;-85
2023/08/16 03:52:10;;;;;;;4.07;2.60;;;13.60;99.90;;;;;;4826520;29;20049;-84
2023/08/16 03:54:35;;;;;;;4.43;2.10;;;13.60;99.90;;;;;;4812955;29;20504;-85
2023/08/16 03:57:02;;;;;;;3.60;2.75;;;13.60;99.90;;;;;;4829381;29;20037;-85
2023/08/16 03:59:27;;;;;;;5.73;2.80;;;13.60;99.90;;;;;;4813033;29;20039;-85
2023/08/16 04:01:53;;;;;;;4.90;2.30;;;13.60;99.90;;;;;;4827545;29;20116;-84
2023/08/16 04:04:19;;;;;;;2.70;1.95;;;13.50;99.90;;;;;;4808255;29;20097;-84
2023/08/16 04:06:44;;;;;;;3.10;2.15;;;13.60;99.90;;;;;;4826101;29;20504;-85
2023/08/16 04:09:10;;;;;;;4.40;2.80;;;13.60;99.90;;;;;;4832068;29;20116;-85
2023/08/16 04:11:36;;;;;;;3.33;2.90;;;13.50;99.90;;;;;;4811563;29;20627;-85
2023/08/16 04:14:02;;;;;;;4.20;3.33;;;13.60;99.90;;;;;;4824911;29;20038;-84
2023/08/16 04:16:27;;;;;;;5.57;3.85;;;13.60;99.90;;;;;;4840015;29;20045;-85
2023/08/16 04:18:54;;;;;;;3.88;3.47;;;13.60;99.90;;;;;;4808737;29;20046;-85
2023/08/16 04:21:20;;;;;;;5.15;3.95;;;13.60;99.90;;;;;;4812452;29;20045;-85
2023/08/16 04:23:46;;;;;;;4.35;3.13;;;13.60;99.90;;;;;;4848026;29;20495;-85
2023/08/16 04:26:12;;;;;;;5.22;3.95;;;13.60;99.90;;;;;;4843445;29;20045;-85
2023/08/16 04:28:37;;;;;;;4.10;2.85;;;13.60;99.90;;;;;;4827051;29;20055;-85
2023/08/16 04:31:06;;;;;;;3.88;2.30;;;13.60;99.90;;;;;;4841236;29;20041;-85
2023/08/16 04:33:32;;;;;;;2.53;2.17;;;13.60;99.90;;;;;;4842806;29;20733;-85
2023/08/16 04:35:58;;;;;;;3.50;3.05;;;13.60;99.90;;;;;;4840267;29;20095;-84
2023/08/16 04:38:24;;;;;;;3.58;2.67;;;13.60;99.90;;;;;;4856772;29;20132;-85
2023/08/16 04:40:50;;;;;;;3.53;3.13;;;13.70;99.90;;;;;;4842068;29;20041;-85
2023/08/16 04:43:18;;;;;;;4.72;2.88;;;13.70;99.90;;;;;;4835287;29;20405;-85
2023/08/16 04:45:44;;;;;;;3.30;1.80;;;13.80;99.90;;;;;;4828494;29;20048;-85
2023/08/16 04:48:10;;;;;;;1.60;1.23;;;13.80;99.90;;;;;;4853428;29;20403;-85
2023/08/16 04:50:35;;;;;;;1.45;1.00;;;13.70;99.90;;;;;;4848050;29;20056;-85
2023/08/16 04:53:02;;;;;;;2.80;2.05;;;13.80;99.90;;;;;;4846662;29;20437;-85
2023/08/16 04:55:28;;;;;;;2.33;1.35;;;13.80;99.90;;;;;;4830595;29;20033;-84
2023/08/16 04:57:54;;;;;;;2.85;1.52;;;13.80;99.90;;;;;;4846312;29;20113;-85
2023/08/16 05:00:21;;;;;;;1.50;0.97;;;13.90;99.90;;;;;;4812943;29;20046;-84
2023/08/16 05:02:46;;;;;;;2.50;1.98;;;14.00;99.90;;;;;;4839498;29;20038;-84
2023/08/16 05:05:12;;;;;;;4.00;2.08;;;14.10;99.90;;;;;;4845572;29;20045;-84
2023/08/16 05:07:38;;;;;;;2.22;1.95;;;14.10;99.90;;;;;;4845276;29;20049;-84
2023/08/16 05:10:04;;;;;;;2.78;2.50;;;14.30;99.90;;;;;;4845370;29;20088;-84
2023/08/16 05:12:30;;;;;;;3.30;2.28;;;14.60;99.90;;;;;;4836014;29;20050;-84
2023/08/16 05:14:56;;;;;;;2.55;2.20;;;14.90;99.90;;;;;;4811633;29;20098;-84
2023/08/16 05:17:21;;;;;;;3.17;2.75;;;15.20;99.90;;;;;;4842623;29;20517;-84
2023/08/16 05:19:47;;;;;;;2.67;2.10;;;15.40;99.90;;;;;;4817155;29;20485;-85
2023/08/16 05:22:13;;;;;;;2.78;1.92;;;15.60;99.90;;;;;;4834459;29;20682;-85
2023/08/16 05:24:39;;;;;;;3.13;1.98;;;15.70;99.90;;;;;;4831401;29;20045;-85
2023/08/16 05:27:04;;;;;;;5.55;2.67;;;15.90;99.90;;;;;;4841965;29;20054;-85
2023/08/16 05:29:30;;;;;;;5.18;3.40;;;16.10;99.90;;;;;;4830349;29;20041;-85
2023/08/16 05:31:57;;;;;;;2.25;2.05;;;16.20;99.90;;;;;;4846119;29;20131;-84
2023/08/16 05:34:23;;;;;;;4.05;2.70;;;16.30;99.90;;;;;;4829743;29;20086;-84
2023/08/16 05:36:50;;;;;;;3.97;2.78;;;16.50;99.90;;;;;;4832847;29;20080;-85
2023/08/16 05:39:17;;;;;;;4.10;2.75;;;16.70;99.90;;;;;;4828430;29;20068;-84
2023/08/16 05:41:43;;;;;;;4.05;2.67;;;16.90;99.90;;;;;;4829689;29;20041;-84
2023/08/16 05:44:08;;;;;;;6.05;2.92;;;17.10;99.90;;;;;;4834693;29;20059;-84
2023/08/16 05:46:34;;;;;;;5.50;2.70;;;17.50;99.90;;;;;;4844977;29;20087;-84
2023/08/16 05:49:05;;;;;;;3.40;2.50;;;17.80;99.90;;;;;;4799187;29;20049;-85
2023/08/16 05:51:35;;;;;;;2.95;2.63;;;18.20;99.90;;;;;;4802388;29;20083;-86
2023/08/16 05:54:04;;;;;;;3.75;2.40;;;18.70;99.90;;;;;;4830450;29;20699;-85
2023/08/16 05:56:29;;;;;;;2.50;2.10;;;18.90;99.90;;;;;;4830976;29;20489;-84
2023/08/16 05:58:55;;;;;;;2.63;2.10;;;19.30;99.90;;;;;;4830135;29;20080;-85
2023/08/16 06:01:21;;;;;;;5.50;2.40;;;19.90;99.90;;;;;;4830039;29;20489;-84
2023/08/16 06:03:47;;;;;;;2.17;1.98;;;20.80;99.90;;;;;;4845507;29;20060;-84
2023/08/16 06:06:12;;;;;;;3.28;2.13;;;21.20;99.90;;;;;;4823186;29;20089;-84
2023/08/16 06:08:38;;;;;;;3.45;2.40;;;22.00;99.90;;;;;;4829491;29;20086;-84
2023/08/16 06:11:04;;;;;;;2.83;2.25;;;22.50;99.90;;;;;;4844334;29;20096;-84
2023/08/16 06:13:30;;;;;;;2.85;2.20;;;22.50;99.90;;;;;;4814701;29;20152;-84
2023/08/16 06:15:56;;;;;;;3.47;2.70;;;22.30;99.90;;;;;;4830682;29;20045;-85
2023/08/16 06:18:21;;;;;;;3.83;2.83;;;22.30;99.90;;;;;;4843071;29;20148;-84
2023/08/16 06:20:47;;;;;;;5.60;2.40;;;22.20;99.90;;;;;;4831407;29;20046;-84
2023/08/16 06:23:13;;;;;;;5.38;2.90;;;22.60;99.90;;;;;;4831096;29;20103;-84
2023/08/16 06:25:39;;;;;;;3.78;2.72;;;23.40;99.90;;;;;;4828598;29;20042;-85
2023/08/16 06:28:05;;;;;;;2.50;2.27;;;24.00;99.90;;;;;;4841255;29;20073;-84
2023/08/16 06:30:30;;;;;;;3.63;2.03;;;24.30;99.90;;;;;;4845488;29;20045;-84
2023/08/16 06:32:56;;;;;;;4.63;2.00;;;24.40;99.90;;;;;;4812614;29;20053;-85
2023/08/16 06:35:22;;;;;;;4.17;2.20;;;24.30;99.90;;;;;;4829462;29;20098;-85
2023/08/16 06:37:47;;;;;;;3.40;2.13;;;23.80;99.90;;;;;;4826484;29;20049;-85
2023/08/16 06:40:13;;;;;;;3.90;2.10;;;23.30;99.90;;;;;;4838931;29;20041;-85
2023/08/16 06:42:39;;;;;;;4.00;2.23;;;23.00;99.90;;;;;;4814388;29;20042;-85
2023/08/16 06:45:07;;;;;;;3.22;2.20;;;22.60;99.90;;;;;;4821535;29;20398;-86
2023/08/16 06:47:32;;;;;;;5.53;2.42;;;22.20;99.90;;;;;;4812579;29;20049;-85
2023/08/16 06:49:58;;;;;;;3.97;1.93;;;22.00;99.90;;;;;;4847028;29;20053;-86
2023/08/16 06:52:24;;;;;;;4.30;2.20;;;22.10;99.90;;;;;;4814518;29;20119;-86
2023/08/16 06:54:49;;;;;;;2.87;2.17;;;22.20;99.90;;;;;;4812554;29;20054;-86
2023/08/16 06:57:15;;;;;;;3.73;2.43;;;22.50;99.90;;;;;;4817616;29;20410;-86
2023/08/16 06:59:41;;;;;;;4.43;2.20;;;23.30;99.90;;;;;;4813709;29;20047;-86
2023/08/16 07:02:11;;;;;;;4.13;2.40;;;23.20;99.90;;;;;;4831573;29;20693;-86
2023/08/16 07:04:40;;;;;;;3.15;2.33;;;23.40;99.90;;;;;;4830823;29;20049;-87
2023/08/16 07:07:06;;;;;;;3.22;2.15;;;24.20;99.90;;;;;;4844218;29;20053;-87
2023/08/16 07:09:31;;;;;;;4.23;2.23;;;24.50;99.90;;;;;;4796553;29;20394;-87
2023/08/16 07:11:57;;;;;;;4.10;1.87;;;24.90;99.90;;;;;;4826268;29;20048;-86
2023/08/16 07:14:23;;;;;;;1.90;1.53;;;25.10;99.90;;;;;;4812766;29;20050;-86
2023/08/16 07:16:49;;;;;;;2.20;1.50;;;25.10;99.90;;;;;;4847921;29;20063;-87
2023/08/16 07:19:14;;;;;;;2.47;1.30;;;25.70;99.90;;;;;;4810151;29;20041;-88
2023/08/16 07:21:40;;;;;;;2.60;1.20;;;26.30;99.90;;;;;;4813742;29;20045;-87
2023/08/16 07:24:06;;;;;;;1.60;1.23;;;26.20;99.90;;;;;;4801810;29;20072;-91
2023/08/16 07:26:32;;;;;;;2.42;1.38;;;25.80;99.90;;;;;;4819337;29;20093;-89
2023/08/16 07:28:57;;;;;;;1.50;1.30;;;25.60;99.90;;;;;;4838375;29;20153;-87
2023/08/16 07:31:23;;;;;;;2.17;1.40;;;26.20;99.90;;;;;;4834795;29;20613;-87
2023/08/16 07:33:49;;;;;;;2.53;1.60;;;26.50;99.90;;;;;;4844669;29;20049;-85
2023/08/16 07:36:15;;;;;;;2.50;1.43;;;26.10;99.90;;;;;;4829709;29;20498;-87
2023/08/16 07:38:42;;;;;;;2.57;1.47;;;26.50;99.90;;;;;;4813675;29;20073;-96
2023/08/16 07:41:08;;;;;;;1.85;0.70;;;27.40;99.90;;;;;;4812803;29;20047;-87
2023/08/16 07:43:34;;;;;;;1.10;1.00;;;27.50;99.90;;;;;;4824040;29;20132;-88
2023/08/16 07:46:00;;;;;;;2.70;0.98;;;26.80;99.90;;;;;;4818838;29;20750;-87
2023/08/16 07:48:26;;;;;;;2.17;0.90;;;27.00;99.90;;;;;;4813730;29;20089;-87
2023/08/16 07:50:52;;;;;;;2.23;1.00;;;27.50;99.90;;;;;;4841273;29;20045;-88
2023/08/16 07:53:17;;;;;;;0.95;0.52;;;27.90;99.90;;;;;;4827132;29;20050;-88
2023/08/16 07:55:43;;;;;;;1.23;0.70;;;28.20;99.90;;;;;;4828983;29;20041;-88
2023/08/16 07:58:09;;;;;;;1.30;0.70;;;28.60;99.90;;;;;;4829437;29;20041;-88
2023/08/16 08:00:35;;;;;;;2.23;0.93;;;28.40;99.90;;;;;;4825344;29;20048;-89
2023/08/16 08:03:01;;;;;;;2.38;1.00;;;27.90;99.90;;;;;;4843982;29;20041;-87
2023/08/16 08:05:27;;;;;;;1.73;0.80;;;27.80;99.90;;;;;;4817218;29;20536;-91
2023/08/16 08:07:56;;;;;;;3.33;1.20;;;28.00;99.90;;;;;;4822411;29;20077;-87
2023/08/16 08:10:21;;;;;;;1.92;0.80;;;27.40;99.90;;;;;;4816545;29;20073;-87
2023/08/16 08:12:47;;;;;;;1.42;0.65;;;27.10;99.90;;;;;;4833721;29;20085;-87
2023/08/16 08:15:14;;;;;;;1.67;0.90;;;26.60;99.90;;;;;;4832973;29;20093;-91
2023/08/16 08:17:40;;;;;;;1.80;0.80;;;26.30;99.90;;;;;;4844091;29;20485;-86
2023/08/16 08:20:07;;;;;;;1.13;0.50;;;25.80;99.90;;;;;;4812621;29;20037;-90
2023/08/16 08:22:34;;;;;;;2.45;0.80;;;25.60;99.90;;;;;;4828893;29;20097;-86
2023/08/16 08:25:00;;;;;;;1.90;0.90;;;25.60;99.90;;;;;;4809232;29;20062;-89
2023/08/16 08:27:26;;;;;;;1.75;1.15;;;25.60;99.90;;;;;;4847699;29;20105;-86
2023/08/16 08:29:51;;;;;;;2.27;0.90;;;25.10;99.90;;;;;;4824721;29;20103;-86
2023/08/16 08:32:17;;;;;;;2.23;0.70;;;24.40;99.90;;;;;;4804974;29;20077;-86
2023/08/16 08:34:43;;;;;;;2.40;0.93;;;23.80;99.90;;;;;;4811821;29;20046;-86
2023/08/16 08:37:09;;;;;;;1.73;0.80;;;23.40;99.90;;;;;;4844248;29;20049;-86
2023/08/16 08:39:35;;;;;;;2.67;1.37;;;23.20;99.90;;;;;;4828183;29;20052;-88
2023/08/16 08:42:04;;;;;;;2.73;1.30;;;23.40;99.90;;;;;;4844309;29;20046;-89
2023/08/16 08:44:32;;;;;;;1.63;0.90;;;23.50;99.90;;;;;;4817316;29;20077;-90
2023/08/16 08:46:59;;;;;;;3.58;1.30;;;24.00;99.90;;;;;;4827912;29;20050;-87
2023/08/16 08:49:25;;;;;;;2.33;0.90;;;25.10;99.90;;;;;;4803538;29;20053;-86
2023/08/16 08:51:53;;;;;;;2.75;1.17;;;25.50;99.90;;;;;;4828242;29;20065;-86
2023/08/16 08:54:18;;;;;;;3.13;1.58;;;25.10;99.90;;;;;;4839655;29;20565;-86
2023/08/16 08:56:45;;;;;;;1.63;1.00;;;24.70;99.90;;;;;;4815292;29;20132;-84
2023/08/16 08:59:11;;;;;;;;;;;24.70;99.90;;;;;;4803005;29;20478;-96
2023/08/16 09:01:39;;;;;;;1.88;1.10;;;24.30;99.90;;;;;;4829769;29;19919;-87
2023/08/16 09:04:05;;;;;;;2.35;1.20;;;24.50;99.90;;;;;;4856690;29;20045;-84
2023/08/16 09:06:31;;;;;;;2.15;0.95;;;24.60;99.90;;;;;;4848624;29;20049;-93
2023/08/16 09:08:57;;;;;;;2.65;0.90;;;24.70;99.90;;;;;;4831614;29;20046;-90
2023/08/16 09:11:27;;;;;;;2.23;1.20;;;24.80;99.90;;;;;;4817351;29;20664;-86
2023/08/16 09:13:53;;;;;;;3.53;1.42;;;24.70;99.90;;;;;;4812557;29;20482;-88
2023/08/16 09:16:20;;;;;;;;;;;24.40;99.90;;;;;;4834192;29;20132;-89
2023/08/16 09:18:50;;;;;;;2.05;1.10;;;24.40;99.90;;;;;;4825447;29;19975;-87
2023/08/16 09:21:18;;;;;;;2.72;1.17;;;24.10;99.90;;;;;;4827800;29;20045;-90
2023/08/16 09:23:44;;;;;;;2.33;1.15;;;24.10;99.90;;;;;;4798920;29;20074;-89
2023/08/16 09:26:17;;;;;;;2.70;1.05;;;23.60;99.90;;;;;;4812894;29;20049;-88
2023/08/16 09:28:44;;;;;;;2.42;1.00;;;23.20;99.90;;;;;;4810116;29;20049;-90
2023/08/16 09:31:10;;;;;;;1.75;1.00;;;23.00;99.90;;;;;;4842770;29;20105;-87
2023/08/16 09:33:37;;;;;;;4.28;1.75;;;22.80;99.90;;;;;;4831527;29;20565;-87
2023/08/16 09:36:04;;;;;;;1.77;1.30;;;22.70;99.90;;;;;;4831609;29;20040;-85
2023/08/16 09:38:31;;;;;;;;;;;22.70;99.90;;;;;;4840586;29;20042;-93
2023/08/16 09:40:58;;;;;;;4.97;1.33;;;22.80;99.90;;;;;;4831267;29;19927;-86
2023/08/16 09:43:24;;;;;;;2.25;0.80;;;23.00;99.90;;;;;;4840093;29;20041;-91
2023/08/16 09:45:54;;;;;;;4.03;1.00;;;23.20;99.90;;;;;;4824647;29;20049;-90
2023/08/16 09:48:21;;;;;;;1.73;1.17;;;23.40;99.90;;;;;;4828806;29;20057;-91
2023/08/16 09:50:47;;;;;;;2.33;0.98;;;23.70;99.90;;;;;;4840493;29;20046;-88
2023/08/16 09:53:13;;;;;;;1.20;0.95;;;23.80;99.90;;;;;;4832280;29;20048;-88
2023/08/16 09:55:42;;;;;;;1.23;1.13;;;23.70;99.90;;;;;;4846335;29;20497;-93
2023/08/16 09:58:08;;;;;;;2.80;1.50;;;23.30;99.90;;;;;;4813181;29;20042;-88
2023/08/16 10:00:34;;;;;;;2.35;1.50;;;23.00;99.90;;;;;;4846414;29;20056;-88
2023/08/16 10:03:01;;;;;;;5.20;1.20;;;22.80;99.90;;;;;;4840661;29;20067;-88
2023/08/16 10:05:27;;;;;;;1.77;0.95;;;22.90;99.90;;;;;;4829272;29;20136;-90
2023/08/16 10:07:56;;;;;;;2.47;1.10;;;23.10;99.90;;;;;;4826849;29;20052;-90
2023/08/16 10:10:22;;;;;;;2.33;1.15;;;23.10;99.90;;;;;;4845063;29;20061;-86
2023/08/16 10:12:48;;;;;;;2.20;1.03;;;22.90;99.90;;;;;;4846853;29;20080;-85
2023/08/16 10:15:14;;;;;;;1.92;1.10;;;22.70;99.90;;;;;;4845441;29;20041;-86
2023/08/16 10:17:42;;;;;;;1.20;0.80;;;22.60;99.90;;;;;;4801995;29;20045;-85
2023/08/16 10:20:22;;;;;;;4.28;1.17;;;22.70;99.90;;;;;;4845760;29;20048;-87
2023/08/16 10:22:53;;;;;;;1.73;1.13;;;22.70;99.90;;;;;;4845362;29;20046;-94
2023/08/16 10:25:24;;;;;;;2.10;1.00;;;22.90;99.90;;;;;;4849458;29;20669;-85
2023/08/16 10:27:54;;;;;;;3.20;1.30;;;23.10;99.90;;;;;;4837005;29;20053;-88
2023/08/16 10:30:21;;;;;;;2.90;1.30;;;23.20;99.90;;;;;;4830775;29;20053;-86
2023/08/16 10:32:56;;;;;;;2.00;1.02;;;23.30;99.90;;;;;;4829518;29;20083;-85
2023/08/16 10:35:22;;;;;;;3.80;1.50;;;23.50;99.90;;;;;;4824108;29;20493;-86
2023/08/16 10:37:49;;;;;;;1.65;1.20;;;23.50;99.90;;;;;;4829927;29;20048;-91
2023/08/16 10:40:20;;;;;;;2.15;1.20;;;23.70;99.90;;;;;;4826746;29;20046;-86
2023/08/16 10:42:54;;;;;;;3.28;1.40;;;23.60;99.90;;;;;;4814250;29;20495;-91
2023/08/16 10:45:24;;;;;;;5.60;1.40;;;23.40;99.90;;;;;;4830730;29;20490;-87
2023/08/16 10:47:49;;;;;;;3.33;1.70;;;23.10;99.90;;;;;;4833388;29;20076;-87
2023/08/16 10:50:15;;;;;;;3.30;1.10;;;23.00;99.90;;;;;;4846452;29;20053;-87
2023/08/16 10:52:42;;;;;;;3.23;1.47;;;23.20;99.90;;;;;;4816036;29;20758;-87
2023/08/16 10:55:08;;;;;;;2.20;1.40;;;23.30;99.90;;;;;;4817562;29;20097;-82
2023/08/16 10:57:36;;;;;;;2.38;1.20;;;23.30;99.90;;;;;;4830806;29;20045;-84
2023/08/16 11:00:05;;;;;;;2.83;1.35;;;23.30;99.90;;;;;;4831422;29;20104;-87
2023/08/16 11:02:35;;;;;;;3.30;1.60;;;23.40;99.90;;;;;;4845087;29;20052;-89
2023/08/16 11:05:01;;;;;;;1.92;1.58;;;23.60;99.90;;;;;;4839317;29;20053;-89
2023/08/16 11:07:28;;;;;;;2.13;1.27;;;23.70;99.90;;;;;;4811394;29;20046;-92
2023/08/16 11:10:03;;;;;;;2.90;1.42;;;23.60;99.90;;;;;;4819087;29;20481;-95
2023/08/16 11:12:30;;;;;;;3.30;1.48;;;23.90;99.90;;;;;;4814376;29;20435;-89
2023/08/16 11:14:59;;;;;;;3.28;1.33;;;23.80;99.90;;;;;;4813754;29;20047;-83
2023/08/16 11:17:28;;;;;;;3.25;1.30;;;23.80;99.90;;;;;;4831253;29;20068;-88
2023/08/16 11:19:55;;;;;;;3.45;1.30;;;24.00;99.90;;;;;;4828257;29;20097;-94
2023/08/16 11:22:22;;;;;;;3.08;1.67;;;23.80;99.90;;;;;;4829652;29;20106;-87
2023/08/16 11:24:49;;;;;;;2.17;1.38;;;23.70;99.90;;;;;;4837931;29;20053;-87
2023/08/16 11:27:22;;;;;;;2.22;1.23;;;23.80;99.90;;;;;;4815780;29;20095;-90
2023/08/16 11:29:54;;;;;;;3.92;1.60;;;23.80;99.90;;;;;;4842468;29;20381;-88
2023/08/16 11:32:37;;;;;;;3.88;1.50;;;23.70;99.90;;;;;;4813297;29;20045;-93
2023/08/16 11:35:11;;;;;;;1.83;1.30;;;23.60;99.90;;;;;;4826643;29;20068;-87
2023/08/16 11:37:41;;;;;;;2.00;1.00;;;23.60;99.90;;;;;;4830998;29;20113;-89
2023/08/16 11:40:09;;;;;;;2.60;1.25;;;23.80;99.90;;;;;;4844404;29;20038;-89
2023/08/16 11:42:35;;;;;;;3.30;1.27;;;24.10;99.90;;;;;;4807165;29;20068;-86
2023/08/16 11:45:03;;;;;;;3.50;1.20;;;24.20;99.90;;;;;;4829600;29;20124;-87
2023/08/16 11:47:29;;;;;;;3.15;1.50;;;24.40;99.90;;;;;;4839179;29;20478;-87
2023/08/16 11:49:55;;;;;;;2.05;1.00;;;24.20;99.90;;;;;;4828802;29;20050;-86
2023/08/16 11:52:25;;;;;;;3.17;1.37;;;24.00;99.90;;;;;;4828035;29;20611;-87
2023/08/16 11:55:05;;;;;;;3.03;1.60;;;23.70;99.90;;;;;;4835130;29;20049;-87
2023/08/16 11:57:53;;;;;;;2.08;1.08;;;23.60;99.90;;;;;;4839607;29;20045;-94
2023/08/16 12:00:26;;;;;;;2.03;1.15;;;23.50;99.90;;;;;;4829456;29;20041;-92
2023/08/16 12:02:52;;;;;;;2.50;1.50;;;23.40;99.90;;;;;;4828361;29;20037;-87
2023/08/16 12:05:17;;;;;;;2.17;1.33;;;23.30;99.90;;;;;;4820799;29;20108;-87
2023/08/16 12:07:47;;;;;;;1.30;0.90;;;23.30;99.90;;;;;;4850660;29;20044;-89
2023/08/16 12:10:27;;;;;;;2.28;1.23;;;23.40;99.90;;;;;;4837884;29;20072;-86
2023/08/16 12:12:56;;;;;;;2.63;1.20;;;23.40;99.90;;;;;;4843624;29;20049;-87
2023/08/16 12:15:24;;;;;;;3.58;1.10;;;23.50;99.90;;;;;;4833392;29;20052;-86
2023/08/16 12:17:55;;;;;;;1.45;0.73;;;23.50;99.90;;;;;;4843975;29;20498;-93
2023/08/16 12:20:24;;;;;;;2.30;0.95;;;23.50;99.90;;;;;;4840014;29;20061;-92
2023/08/16 12:22:52;;;;;;;2.35;0.50;;;23.50;99.90;;;;;;4827218;29;20048;-90
2023/08/16 12:25:18;;;;;;;0.90;0.50;;;23.40;99.90;;;;;;4833988;29;20045;-90
2023/08/16 12:27:43;;;;;;;2.23;1.00;;;23.40;99.90;;;;;;4831275;29;20505;-86
2023/08/16 12:30:10;;;;;;;1.37;1.00;;;23.40;99.90;;;;;;4805227;29;20063;-85
2023/08/16 12:32:35;;;;;;;5.25;0.77;;;23.30;99.90;;;;;;4843474;29;20573;-89
2023/08/16 12:35:02;;;;;;;1.03;0.57;;;23.20;99.90;;;;;;4815329;29;20069;-81
2023/08/16 12:37:28;;;;;;;2.42;0.80;;;23.20;99.90;;;;;;4846256;29;20132;-81
2023/08/16 12:39:53;;;;;;;2.10;0.60;;;23.20;99.90;;;;;;4842055;29;20455;-91
2023/08/16 12:42:19;;;;;;;1.23;0.70;;;23.20;99.90;;;;;;4841700;29;20126;-91
2023/08/16 12:44:45;;;;;;;1.10;0.57;;;23.00;99.90;;;;;;4830235;29;20124;-90